Time;durP1;ratioP1;P1;durP2;ratioP2;P2;SDS_P1;SDS_P2;PMS_P1;PMS_P2;Temp;Humidity;BMP_temperature;BMP_pressure;BME280_temperature;BME280_humidity;BME280_pressure;Samples;Min_cycle;Max_cycle;Signal;HPM_P1;HPM_P2
2024/01/24 00:01:14;;;;;;;119.50;82.72;;;;;;;;;;5030394;28;20021;-67
2024/01/24 00:03:41;;;;;;;122.30;82.32;;;;;;;;;;5031047;28;20083;-67
2024/01/24 00:06:07;;;;;;;117.28;80.82;;;;;;;;;;5029608;28;20060;-67
2024/01/24 00:08:33;;;;;;;120.25;79.30;;;;;;;;;;5030942;28;20022;-68
2024/01/24 00:11:01;;;;;;;117.05;78.50;;;;;;;;;;5030350;28;20053;-68
2024/01/24 00:13:27;;;;;;;120.57;79.07;;;;;;;;;;5030722;28;20026;-67
2024/01/24 00:15:53;;;;;;;114.15;75.32;;;;;;;;;;5030679;28;20037;-67
2024/01/24 00:18:19;;;;;;;116.65;78.22;;;;;;;;;;5031245;28;20021;-67
2024/01/24 00:20:45;;;;;;;107.95;74.28;;;;;;;;;;5030623;28;20036;-67
2024/01/24 00:23:11;;;;;;;111.72;73.65;;;;;;;;;;5031597;28;20029;-68
2024/01/24 00:25:38;;;;;;;114.53;76.57;;;;;;;;;;5030737;28;20040;-68
2024/01/24 00:28:06;;;;;;;110.70;72.68;;;;;;;;;;5030887;28;20014;-67
2024/01/24 00:30:32;;;;;;;108.60;72.35;;;;;;;;;;5029836;28;20034;-67
2024/01/24 00:32:58;;;;;;;105.50;70.75;;;;;;;;;;5030853;28;20386;-67
2024/01/24 00:35:24;;;;;;;115.82;72.00;;;;;;;;;;5029095;28;20025;-69
2024/01/24 00:37:50;;;;;;;108.65;71.60;;;;;;;;;;5029654;28;20111;-69
2024/01/24 00:40:16;;;;;;;106.30;70.95;;;;;;;;;;5030071;28;20049;-70
2024/01/24 00:42:42;;;;;;;107.82;69.40;;;;;;;;;;5030583;28;20097;-66
2024/01/24 00:45:09;;;;;;;108.47;70.03;;;;;;;;;;5030509;28;20026;-65
2024/01/24 00:47:35;;;;;;;98.97;65.72;;;;;;;;;;5030121;28;20029;-65
2024/01/24 00:50:04;;;;;;;101.85;66.90;;;;;;;;;;5029849;28;20532;-66
2024/01/24 00:52:30;;;;;;;103.90;66.45;;;;;;;;;;5030229;28;20041;-66
2024/01/24 00:54:56;;;;;;;101.22;65.95;;;;;;;;;;5030383;28;20032;-66
2024/01/24 00:57:22;;;;;;;98.75;64.95;;;;;;;;;;5030670;28;20026;-67
2024/01/24 00:59:48;;;;;;;103.00;65.53;;;;;;;;;;5033937;28;20104;-66
2024/01/24 01:02:14;;;;;;;97.55;62.58;;;;;;;;;;5034292;28;20079;-66
2024/01/24 01:04:40;;;;;;;94.25;63.00;;;;;;;;;;5034233;28;20564;-66
2024/01/24 01:07:06;;;;;;;91.65;61.55;;;;;;;;;;5034560;28;20109;-66
2024/01/24 01:09:32;;;;;;;93.75;62.47;;;;;;;;;;5034275;28;20088;-66
2024/01/24 01:11:58;;;;;;;100.00;62.38;;;;;;;;;;5032866;28;20018;-66
2024/01/24 01:14:24;;;;;;;92.20;59.65;;;;;;;;;;5033915;28;20017;-66
2024/01/24 01:16:50;;;;;;;92.93;62.10;;;;;;;;;;5034551;28;20025;-66
2024/01/24 01:19:16;;;;;;;92.43;61.13;;;;;;;;;;5034298;28;20025;-68
2024/01/24 01:21:42;;;;;;;98.13;63.60;;;;;;;;;;5033458;28;20025;-68
2024/01/24 01:24:09;;;;;;;92.47;60.42;;;;;;;;;;5034011;28;20029;-67
2024/01/24 01:26:35;;;;;;;88.65;59.28;;;;;;;;;;5035649;28;20026;-67
2024/01/24 01:29:01;;;;;;;85.80;56.83;;;;;;;;;;5040773;28;20025;-67
2024/01/24 01:31:27;;;;;;;90.28;58.20;;;;;;;;;;5044833;28;20026;-66
2024/01/24 01:33:54;;;;;;;87.28;57.10;;;;;;;;;;5045694;28;20032;-66
2024/01/24 01:36:20;;;;;;;83.55;56.13;;;;;;;;;;5045323;28;20014;-66
2024/01/24 01:38:46;;;;;;;85.47;55.53;;;;;;;;;;5042419;28;20025;-67
2024/01/24 01:41:12;;;;;;;82.50;55.50;;;;;;;;;;5041208;28;20032;-66
2024/01/24 01:43:38;;;;;;;80.32;54.85;;;;;;;;;;5035334;28;20031;-66
2024/01/24 01:46:06;;;;;;;79.55;54.83;;;;;;;;;;5034202;28;20390;-67
2024/01/24 01:48:32;;;;;;;83.30;54.47;;;;;;;;;;5032521;28;20025;-67
2024/01/24 01:50:58;;;;;;;83.68;55.20;;;;;;;;;;5033372;28;20021;-69
2024/01/24 01:53:24;;;;;;;75.93;52.13;;;;;;;;;;5033720;28;20025;-66
2024/01/24 01:55:51;;;;;;;81.55;53.92;;;;;;;;;;5033530;28;20013;-65
2024/01/24 01:58:17;;;;;;;78.32;52.50;;;;;;;;;;5033439;28;20029;-65
2024/01/24 02:00:45;;;;;;;80.43;53.75;;;;;;;;;;5032947;28;20025;-65
2024/01/24 02:03:12;;;;;;;75.60;50.53;;;;;;;;;;5033528;28;20025;-66
2024/01/24 02:05:39;;;;;;;75.22;50.38;;;;;;;;;;5033598;28;20021;-66
2024/01/24 02:08:06;;;;;;;79.25;52.45;;;;;;;;;;5033138;28;20053;-65
2024/01/24 02:10:32;;;;;;;77.95;51.75;;;;;;;;;;5030976;28;20495;-65
2024/01/24 02:12:59;;;;;;;79.15;49.20;;;;;;;;;;5033170;28;20048;-66
2024/01/24 02:15:26;;;;;;;72.40;48.38;;;;;;;;;;5033033;28;20025;-66
2024/01/24 02:17:53;;;;;;;74.80;49.47;;;;;;;;;;5033045;28;20017;-66
2024/01/24 02:20:19;;;;;;;72.32;48.50;;;;;;;;;;5032026;28;20029;-66
2024/01/24 02:22:45;;;;;;;74.43;46.90;;;;;;;;;;5033037;28;20022;-66
2024/01/24 02:25:11;;;;;;;72.32;46.40;;;;;;;;;;5032962;28;20017;-65
2024/01/24 02:27:37;;;;;;;74.55;47.53;;;;;;;;;;5031510;28;20505;-66
2024/01/24 02:30:04;;;;;;;72.53;47.45;;;;;;;;;;5032185;28;20096;-66
2024/01/24 02:32:30;;;;;;;66.72;45.20;;;;;;;;;;5032672;28;20025;-66
2024/01/24 02:34:56;;;;;;;70.32;45.63;;;;;;;;;;5031543;28;20025;-66
2024/01/24 02:37:22;;;;;;;74.13;46.45;;;;;;;;;;5032745;28;20021;-68
2024/01/24 02:39:48;;;;;;;61.60;43.05;;;;;;;;;;5032263;28;20025;-67
2024/01/24 02:42:15;;;;;;;70.55;44.63;;;;;;;;;;5032507;28;20021;-67
2024/01/24 02:44:41;;;;;;;66.50;44.90;;;;;;;;;;5033034;28;20030;-67
2024/01/24 02:47:07;;;;;;;63.00;43.67;;;;;;;;;;5032769;28;20025;-68
2024/01/24 02:49:33;;;;;;;64.82;43.88;;;;;;;;;;5032550;28;20025;-68
2024/01/24 02:52:02;;;;;;;65.85;43.40;;;;;;;;;;5031941;28;20029;-68
2024/01/24 02:54:28;;;;;;;61.00;40.63;;;;;;;;;;5032315;28;20026;-67
2024/01/24 02:56:54;;;;;;;69.47;43.65;;;;;;;;;;5032577;28;20013;-68
2024/01/24 02:59:20;;;;;;;62.55;41.72;;;;;;;;;;5032480;28;20022;-65
2024/01/24 03:01:46;;;;;;;61.85;42.20;;;;;;;;;;5025107;28;20025;-66
2024/01/24 03:04:12;;;;;;;61.90;40.20;;;;;;;;;;5032733;28;20014;-66
2024/01/24 03:06:41;;;;;;;59.88;40.85;;;;;;;;;;5032398;28;20017;-66
2024/01/24 03:09:07;;;;;;;63.75;40.15;;;;;;;;;;5032578;28;20140;-66
2024/01/24 03:11:33;;;;;;;61.55;40.30;;;;;;;;;;5031694;28;20396;-69
2024/01/24 03:13:59;;;;;;;58.70;39.67;;;;;;;;;;5030798;28;20009;-68
2024/01/24 03:16:25;;;;;;;56.63;38.10;;;;;;;;;;5031849;28;20056;-69
2024/01/24 03:18:51;;;;;;;60.03;37.63;;;;;;;;;;5032224;28;20013;-68
2024/01/24 03:21:18;;;;;;;58.30;37.90;;;;;;;;;;5030702;28;20481;-68
2024/01/24 03:23:45;;;;;;;61.47;38.92;;;;;;;;;;5031709;28;20037;-66
2024/01/24 03:26:13;;;;;;;53.45;36.85;;;;;;;;;;5031667;28;20033;-68
2024/01/24 03:28:39;;;;;;;53.08;36.88;;;;;;;;;;5031723;28;20091;-67
2024/01/24 03:31:05;;;;;;;55.13;36.88;;;;;;;;;;5031150;28;20037;-68
2024/01/24 03:33:31;;;;;;;55.35;36.50;;;;;;;;;;5031591;28;20060;-68
2024/01/24 03:35:57;;;;;;;55.22;36.42;;;;;;;;;;5031448;28;20572;-68
2024/01/24 03:38:23;;;;;;;55.00;35.03;;;;;;;;;;5031418;28;20029;-68
2024/01/24 03:40:50;;;;;;;51.40;34.72;;;;;;;;;;5031028;28;20473;-70
2024/01/24 03:43:16;;;;;;;53.63;36.05;;;;;;;;;;5031902;28;20033;-70
2024/01/24 03:45:42;;;;;;;52.88;35.85;;;;;;;;;;5031830;28;20029;-70
2024/01/24 03:48:08;;;;;;;50.58;34.50;;;;;;;;;;5031602;28;20386;-69
2024/01/24 03:50:34;;;;;;;52.58;35.78;;;;;;;;;;5031096;28;20475;-71
2024/01/24 03:53:03;;;;;;;51.50;34.00;;;;;;;;;;5031599;28;20025;-65
2024/01/24 03:55:29;;;;;;;48.53;32.20;;;;;;;;;;5031515;28;20418;-65
2024/01/24 03:57:56;;;;;;;45.13;31.42;;;;;;;;;;5031582;28;20105;-65
2024/01/24 04:00:22;;;;;;;49.08;32.35;;;;;;;;;;5030516;28;20024;-64
2024/01/24 04:02:48;;;;;;;49.75;33.00;;;;;;;;;;5031713;28;20021;-65
2024/01/24 04:05:14;;;;;;;51.55;34.28;;;;;;;;;;5036362;28;20021;-65
2024/01/24 04:07:41;;;;;;;46.90;31.55;;;;;;;;;;5037267;28;20033;-65
2024/01/24 04:10:07;;;;;;;44.38;30.48;;;;;;;;;;5035968;28;20017;-66
2024/01/24 04:12:33;;;;;;;45.53;31.17;;;;;;;;;;5035703;28;20029;-66
2024/01/24 04:14:59;;;;;;;47.33;31.75;;;;;;;;;;5036507;28;20047;-67
2024/01/24 04:17:25;;;;;;;48.53;31.48;;;;;;;;;;5032435;28;20026;-67
2024/01/24 04:19:54;;;;;;;43.10;29.23;;;;;;;;;;5031263;28;20017;-67
2024/01/24 04:22:20;;;;;;;42.10;29.05;;;;;;;;;;5030853;28;20120;-66
2024/01/24 04:24:46;;;;;;;46.65;30.20;;;;;;;;;;5030993;28;20018;-66
2024/01/24 04:27:12;;;;;;;44.08;29.70;;;;;;;;;;5030726;28;20026;-67
2024/01/24 04:29:38;;;;;;;41.22;27.98;;;;;;;;;;5030597;28;20029;-66
2024/01/24 04:32:05;;;;;;;45.33;27.65;;;;;;;;;;5028004;28;20028;-66
2024/01/24 04:34:31;;;;;;;41.00;28.15;;;;;;;;;;5030457;28;20033;-66
2024/01/24 04:36:57;;;;;;;41.30;26.95;;;;;;;;;;5029933;28;20021;-65
2024/01/24 04:39:23;;;;;;;41.78;27.45;;;;;;;;;;5030120;28;20103;-66
2024/01/24 04:41:49;;;;;;;39.95;26.50;;;;;;;;;;5029966;28;20473;-66
2024/01/24 04:44:15;;;;;;;41.63;27.67;;;;;;;;;;5030311;28;20029;-66
2024/01/24 04:46:41;;;;;;;36.95;25.45;;;;;;;;;;5029377;28;20115;-66
2024/01/24 04:49:08;;;;;;;40.15;26.65;;;;;;;;;;5030652;28;20022;-66
2024/01/24 04:51:35;;;;;;;39.25;25.90;;;;;;;;;;5028874;28;20388;-66
2024/01/24 04:54:01;;;;;;;40.08;26.13;;;;;;;;;;5030138;28;20028;-66
2024/01/24 04:56:28;;;;;;;37.15;24.25;;;;;;;;;;5030145;28;20034;-66
2024/01/24 04:58:53;;;;;;;43.28;24.08;;;;;;;;;;5030580;28;20634;-67
2024/01/24 05:01:19;;;;;;;44.22;23.55;;;;;;;;;;5029870;28;20207;-68
2024/01/24 05:03:46;;;;;;;42.88;24.92;;;;;;;;;;5029146;28;20025;-68
2024/01/24 05:06:12;;;;;;;46.10;23.10;;;;;;;;;;5030298;28;20026;-70
2024/01/24 05:08:38;;;;;;;41.72;22.77;;;;;;;;;;5030212;28;20041;-72
2024/01/24 05:11:04;;;;;;;40.90;23.08;;;;;;;;;;5029816;28;20022;-71
2024/01/24 05:13:30;;;;;;;43.20;22.60;;;;;;;;;;5030546;28;20021;-71
2024/01/24 05:15:56;;;;;;;38.47;21.75;;;;;;;;;;5030261;28;20040;-70
2024/01/24 05:18:22;;;;;;;44.15;22.30;;;;;;;;;;5030149;28;20026;-68
2024/01/24 05:20:48;;;;;;;45.92;23.50;;;;;;;;;;5029713;28;20390;-68
2024/01/24 05:23:15;;;;;;;42.88;22.65;;;;;;;;;;5030312;28;20401;-67
2024/01/24 05:25:42;;;;;;;34.40;20.20;;;;;;;;;;5029250;28;20029;-66
2024/01/24 05:28:09;;;;;;;32.60;19.55;;;;;;;;;;5030127;28;20033;-66
2024/01/24 05:30:35;;;;;;;36.20;20.95;;;;;;;;;;5029361;28;20033;-67
2024/01/24 05:33:01;;;;;;;33.00;20.25;;;;;;;;;;5030171;28;20025;-67
2024/01/24 05:35:27;;;;;;;31.23;19.25;;;;;;;;;;5029954;28;20022;-67
2024/01/24 05:37:53;;;;;;;29.45;18.65;;;;;;;;;;5030049;28;20022;-67
2024/01/24 05:40:19;;;;;;;34.05;19.70;;;;;;;;;;5028931;28;20028;-67
2024/01/24 05:42:45;;;;;;;32.00;18.75;;;;;;;;;;5030040;28;20071;-71
2024/01/24 05:45:12;;;;;;;35.65;19.42;;;;;;;;;;5033428;28;20021;-68
2024/01/24 05:47:38;;;;;;;41.20;18.13;;;;;;;;;;5032886;28;20028;-67
2024/01/24 05:50:05;;;;;;;43.38;18.42;;;;;;;;;;5032870;28;20021;-69
2024/01/24 05:52:31;;;;;;;30.90;18.35;;;;;;;;;;5033498;28;20056;-69
2024/01/24 05:54:57;;;;;;;36.67;18.15;;;;;;;;;;5032086;28;20021;-68
2024/01/24 05:57:23;;;;;;;28.83;17.92;;;;;;;;;;5033676;28;20018;-68
2024/01/24 05:59:49;;;;;;;30.70;18.33;;;;;;;;;;5032279;28;20555;-68
2024/01/24 06:02:15;;;;;;;30.45;16.50;;;;;;;;;;5033151;28;20025;-67
2024/01/24 06:04:41;;;;;;;29.88;16.00;;;;;;;;;;5033063;28;20064;-67
2024/01/24 06:07:07;;;;;;;30.48;16.52;;;;;;;;;;5033283;28;20461;-70
2024/01/24 06:09:33;;;;;;;40.67;16.13;;;;;;;;;;5033296;28;20037;-70
2024/01/24 06:11:59;;;;;;;27.48;15.48;;;;;;;;;;5033146;28;20372;-67
2024/01/24 06:14:25;;;;;;;29.55;16.75;;;;;;;;;;5031884;28;20023;-70
2024/01/24 06:16:51;;;;;;;32.50;15.68;;;;;;;;;;5033211;28;20045;-70
2024/01/24 06:19:17;;;;;;;28.70;15.40;;;;;;;;;;5031835;28;20025;-69
2024/01/24 06:21:43;;;;;;;58.63;18.13;;;;;;;;;;5030059;28;20040;-66
2024/01/24 06:24:09;;;;;;;31.38;15.25;;;;;;;;;;5031530;28;20108;-67
2024/01/24 06:26:37;;;;;;;37.08;16.20;;;;;;;;;;5032792;28;20051;-69
2024/01/24 06:29:03;;;;;;;28.83;13.85;;;;;;;;;;5033160;28;20029;-69
2024/01/24 06:31:30;;;;;;;34.05;14.80;;;;;;;;;;5031620;28;20028;-70
2024/01/24 06:33:56;;;;;;;33.03;14.70;;;;;;;;;;5035050;28;20025;-72
2024/01/24 06:36:22;;;;;;;26.52;14.25;;;;;;;;;;5049577;28;20220;-70
2024/01/24 06:38:48;;;;;;;36.08;15.48;;;;;;;;;;5048040;28;20029;-72
2024/01/24 06:41:14;;;;;;;35.47;14.77;;;;;;;;;;5050575;28;20022;-73
2024/01/24 06:43:42;;;;;;;29.83;13.82;;;;;;;;;;5047879;28;20033;-72
2024/01/24 06:46:08;;;;;;;29.98;15.15;;;;;;;;;;5048196;28;20021;-72
2024/01/24 06:48:34;;;;;;;31.58;14.52;;;;;;;;;;5036087;28;20191;-73
2024/01/24 06:51:00;;;;;;;28.33;13.00;;;;;;;;;;5033560;28;20025;-72
2024/01/24 06:53:26;;;;;;;26.30;7.20;;;;;;;;;;5032018;28;20036;-68
2024/01/24 06:55:53;;;;;;;9.15;2.28;;;;;;;;;;5031781;28;20144;-68
2024/01/24 06:58:19;;;;;;;2.60;1.17;;;;;;;;;;5030708;28;20482;-67
2024/01/24 07:00:45;;;;;;;2.20;0.43;;;;;;;;;;5031492;28;20045;-68
2024/01/24 07:03:11;;;;;;;6.70;0.80;;;;;;;;;;5032152;28;20024;-68
2024/01/24 07:05:37;;;;;;;1.63;0.57;;;;;;;;;;5031574;28;20029;-68
2024/01/24 07:08:04;;;;;;;0.93;0.45;;;;;;;;;;5032067;28;20021;-67
2024/01/24 07:10:29;;;;;;;1.75;0.30;;;;;;;;;;5031428;28;20393;-68
2024/01/24 07:12:56;;;;;;;1.70;0.60;;;;;;;;;;5030678;28;20024;-68
2024/01/24 07:15:22;;;;;;;1.27;0.47;;;;;;;;;;5032095;28;20113;-68
2024/01/24 07:17:48;;;;;;;1.15;0.63;;;;;;;;;;5025730;28;20096;-68
2024/01/24 07:20:16;;;;;;;3.30;0.80;;;;;;;;;;5031297;28;20108;-67
2024/01/24 07:22:42;;;;;;;4.82;1.10;;;;;;;;;;5032168;28;20029;-68
2024/01/24 07:25:08;;;;;;;4.13;0.77;;;;;;;;;;5032090;28;20028;-69
2024/01/24 07:27:35;;;;;;;2.33;0.68;;;;;;;;;;5031999;28;20030;-69
2024/01/24 07:30:04;;;;;;;3.00;0.35;;;;;;;;;;5031183;28;20092;-67
2024/01/24 07:32:30;;;;;;;1.45;0.80;;;;;;;;;;5031673;28;20060;-67
2024/01/24 07:34:56;;;;;;;1.67;0.70;;;;;;;;;;5030846;28;20021;-68
2024/01/24 07:37:22;;;;;;;2.10;0.70;;;;;;;;;;5031064;28;20036;-68
2024/01/24 07:39:48;;;;;;;3.03;0.68;;;;;;;;;;5024797;28;20013;-68
2024/01/24 07:42:14;;;;;;;1.73;0.70;;;;;;;;;;5031360;28;20389;-68
2024/01/24 07:44:41;;;;;;;2.17;1.35;;;;;;;;;;5030609;28;20036;-67
2024/01/24 07:47:07;;;;;;;4.22;2.08;;;;;;;;;;5031996;28;20014;-67
2024/01/24 07:49:33;;;;;;;3.50;2.10;;;;;;;;;;5031572;28;20036;-67
2024/01/24 07:51:59;;;;;;;6.78;2.83;;;;;;;;;;5030964;28;20021;-68
2024/01/24 07:54:25;;;;;;;4.78;2.65;;;;;;;;;;5031393;28;20029;-67
2024/01/24 07:56:53;;;;;;;5.88;3.75;;;;;;;;;;5031689;28;20492;-71
2024/01/24 07:59:19;;;;;;;10.13;4.90;;;;;;;;;;5031611;28;20033;-68
2024/01/24 08:01:47;;;;;;;12.63;6.63;;;;;;;;;;5030892;28;20440;-65
2024/01/24 08:04:13;;;;;;;11.43;6.60;;;;;;;;;;5029734;28;20032;-67
2024/01/24 08:06:40;;;;;;;12.65;7.15;;;;;;;;;;5031277;28;20041;-67
2024/01/24 08:09:07;;;;;;;10.82;7.05;;;;;;;;;;5029920;28;20026;-67
2024/01/24 08:11:33;;;;;;;11.02;6.97;;;;;;;;;;5030333;28;20539;-67
2024/01/24 08:13:59;;;;;;;10.70;7.10;;;;;;;;;;5031128;28;20053;-65
2024/01/24 08:16:25;;;;;;;11.57;7.10;;;;;;;;;;5030311;28;20053;-67
2024/01/24 08:18:52;;;;;;;9.75;6.00;;;;;;;;;;5030875;28;20056;-67
2024/01/24 08:21:19;;;;;;;12.98;6.80;;;;;;;;;;5029857;28;20478;-67
2024/01/24 08:23:45;;;;;;;9.32;6.07;;;;;;;;;;5030441;28;20033;-65
2024/01/24 08:26:11;;;;;;;9.60;6.43;;;;;;;;;;5030941;28;20111;-67
2024/01/24 08:28:37;;;;;;;11.00;6.95;;;;;;;;;;5030774;28;20067;-67
2024/01/24 08:31:03;;;;;;;12.20;6.53;;;;;;;;;;5030278;28;20025;-69
2024/01/24 08:33:32;;;;;;;14.60;8.77;;;;;;;;;;5031510;28;20032;-67
2024/01/24 08:35:58;;;;;;;13.13;8.25;;;;;;;;;;5029562;28;20022;-66
2024/01/24 08:38:24;;;;;;;16.30;9.77;;;;;;;;;;5030342;28;20063;-67
2024/01/24 08:40:50;;;;;;;13.98;9.75;;;;;;;;;;5031352;28;20033;-67
2024/01/24 08:43:16;;;;;;;25.75;10.35;;;;;;;;;;5030494;28;20052;-66
2024/01/24 08:45:42;;;;;;;22.63;12.27;;;;;;;;;;5030385;28;20021;-68
2024/01/24 08:48:08;;;;;;;25.50;14.20;;;;;;;;;;5031784;28;20029;-68
2024/01/24 08:50:34;;;;;;;21.33;12.63;;;;;;;;;;5029527;28;20578;-68
2024/01/24 08:53:00;;;;;;;24.05;15.45;;;;;;;;;;5031505;28;20033;-67
2024/01/24 08:55:27;;;;;;;24.63;15.65;;;;;;;;;;5032381;28;20148;-68
2024/01/24 08:57:53;;;;;;;26.17;16.85;;;;;;;;;;5033280;28;20025;-67
2024/01/24 09:00:19;;;;;;;23.48;15.85;;;;;;;;;;5036005;28;20022;-67
2024/01/24 09:02:45;;;;;;;22.90;15.77;;;;;;;;;;5044396;28;20021;-67
2024/01/24 09:05:12;;;;;;;25.42;16.35;;;;;;;;;;5041894;28;20064;-68
2024/01/24 09:07:38;;;;;;;30.13;17.75;;;;;;;;;;5043055;28;20479;-67
2024/01/24 09:10:06;;;;;;;26.27;16.95;;;;;;;;;;5046131;28;20100;-68
2024/01/24 09:12:32;;;;;;;27.58;17.35;;;;;;;;;;5041371;28;20032;-69
2024/01/24 09:14:58;;;;;;;24.38;15.60;;;;;;;;;;5035376;28;20025;-69
2024/01/24 09:17:24;;;;;;;24.42;17.15;;;;;;;;;;5031508;28;20507;-69
2024/01/24 09:19:50;;;;;;;27.17;15.60;;;;;;;;;;5033792;28;20029;-68
2024/01/24 09:22:16;;;;;;;23.83;16.15;;;;;;;;;;5033535;28;20064;-68
2024/01/24 09:24:43;;;;;;;23.55;15.75;;;;;;;;;;5034960;28;20022;-69
2024/01/24 09:27:09;;;;;;;27.13;16.65;;;;;;;;;;5034915;28;20028;-68
2024/01/24 09:29:35;;;;;;;26.90;17.67;;;;;;;;;;5034576;28;20037;-69
2024/01/24 09:32:01;;;;;;;27.30;17.85;;;;;;;;;;5032799;28;20048;-69
2024/01/24 09:34:27;;;;;;;27.00;17.85;;;;;;;;;;5033061;28;20120;-69
2024/01/24 09:36:56;;;;;;;29.95;20.52;;;;;;;;;;5034732;28;20493;-70
2024/01/24 09:39:25;;;;;;;32.20;20.58;;;;;;;;;;5034845;28;20074;-68
2024/01/24 09:41:51;;;;;;;32.85;20.73;;;;;;;;;;5034132;28;20022;-70
2024/01/24 09:44:17;;;;;;;29.17;19.38;;;;;;;;;;5034934;28;20164;-70
2024/01/24 09:46:44;;;;;;;32.22;20.30;;;;;;;;;;5034841;28;20033;-70
2024/01/24 09:49:11;;;;;;;34.60;21.25;;;;;;;;;;5034883;28;20032;-69
2024/01/24 09:51:37;;;;;;;30.58;20.00;;;;;;;;;;5034393;28;20083;-70
2024/01/24 09:54:07;;;;;;;33.83;20.70;;;;;;;;;;5034454;28;20757;-69
2024/01/24 09:56:35;;;;;;;34.72;20.83;;;;;;;;;;5034794;28;20034;-68
2024/01/24 09:59:01;;;;;;;38.78;21.38;;;;;;;;;;5032349;28;20079;-71
2024/01/24 10:01:31;;;;;;;43.80;20.45;;;;;;;;;;5033902;28;20045;-70
2024/01/24 10:03:57;;;;;;;32.05;20.88;;;;;;;;;;5033217;28;20112;-68
2024/01/24 10:06:24;;;;;;;32.60;19.45;;;;;;;;;;5034398;28;20101;-68
2024/01/24 10:08:50;;;;;;;32.67;19.95;;;;;;;;;;5034255;28;20033;-68
2024/01/24 10:11:16;;;;;;;32.83;18.95;;;;;;;;;;5033841;28;20022;-68
2024/01/24 10:13:43;;;;;;;32.65;19.30;;;;;;;;;;5034983;28;20075;-69
2024/01/24 10:16:09;;;;;;;29.35;18.38;;;;;;;;;;5034710;28;20048;-68
2024/01/24 10:18:35;;;;;;;30.40;17.92;;;;;;;;;;5035326;28;20025;-67
2024/01/24 10:21:03;;;;;;;29.38;19.70;;;;;;;;;;5047919;23;20045;-69
2024/01/24 10:23:30;;;;;;;30.90;18.75;;;;;;;;;;5033508;28;20032;-70
2024/01/24 10:25:57;;;;;;;32.63;18.60;;;;;;;;;;5033566;28;20085;-70
2024/01/24 10:28:23;;;;;;;27.83;17.73;;;;;;;;;;5033291;28;20126;-69
2024/01/24 10:30:49;;;;;;;27.42;17.10;;;;;;;;;;5031572;28;20443;-69
2024/01/24 10:33:15;;;;;;;29.02;17.13;;;;;;;;;;5033338;28;20533;-70
2024/01/24 10:35:45;;;;;;;30.60;18.25;;;;;;;;;;5033188;28;20128;-69
2024/01/24 10:38:12;;;;;;;27.08;16.17;;;;;;;;;;5033034;28;20067;-69
2024/01/24 10:40:41;;;;;;;31.92;18.25;;;;;;;;;;5031227;28;20034;-69
2024/01/24 10:43:12;;;;;;;38.72;17.50;;;;;;;;;;5030799;28;20029;-69
2024/01/24 10:45:43;;;;;;;32.30;17.75;;;;;;;;;;5033294;28;20021;-68
2024/01/24 10:48:09;;;;;;;;;;;;;;;;;;5033585;28;20108;-69
2024/01/24 10:50:37;;;;;;;27.33;16.83;;;;;;;;;;5032049;28;19966;-69
2024/01/24 10:53:03;;;;;;;25.30;15.05;;;;;;;;;;5032916;28;20037;-70
2024/01/24 10:55:29;;;;;;;26.85;16.20;;;;;;;;;;5032827;28;20028;-68
2024/01/24 10:57:55;;;;;;;23.60;15.40;;;;;;;;;;5032750;28;20017;-69
2024/01/24 11:00:22;;;;;;;24.17;15.82;;;;;;;;;;5031990;28;20052;-70
2024/01/24 11:02:49;;;;;;;29.13;15.13;;;;;;;;;;5032676;28;20568;-69
2024/01/24 11:05:20;;;;;;;26.90;14.88;;;;;;;;;;5032691;28;20033;-69
2024/01/24 11:07:55;;;;;;;21.48;14.98;;;;;;;;;;5030856;28;20048;-68
2024/01/24 11:10:23;;;;;;;25.52;14.00;;;;;;;;;;5028068;28;20028;-69
2024/01/24 11:12:49;;;;;;;24.23;14.90;;;;;;;;;;5022277;28;20079;-69
2024/01/24 11:15:15;;;;;;;23.63;14.70;;;;;;;;;;5031833;28;20103;-69
2024/01/24 11:17:42;;;;;;;27.02;15.23;;;;;;;;;;5032549;28;20493;-70
2024/01/24 11:20:11;;;;;;;20.52;14.63;;;;;;;;;;5031493;28;20401;-69
2024/01/24 11:22:38;;;;;;;23.38;15.15;;;;;;;;;;5031320;28;20021;-70
2024/01/24 11:25:04;;;;;;;21.23;13.90;;;;;;;;;;5032454;28;20558;-68
2024/01/24 11:27:34;;;;;;;22.23;14.05;;;;;;;;;;5032426;28;20388;-69
2024/01/24 11:30:22;;;;;;;20.65;13.60;;;;;;;;;;5031500;28;20695;-69
2024/01/24 11:32:50;;;;;;;19.92;13.48;;;;;;;;;;5028562;28;20404;-69
2024/01/24 11:35:31;;;;;;;19.63;13.77;;;;;;;;;;5032031;28;20025;-69
2024/01/24 11:38:16;;;;;;;23.73;13.38;;;;;;;;;;5030659;28;20104;-68
2024/01/24 11:40:43;;;;;;;19.92;12.45;;;;;;;;;;5030841;28;20039;-68
2024/01/24 11:43:23;;;;;;;19.25;12.77;;;;;;;;;;5011390;28;20022;-69
2024/01/24 11:45:53;;;;;;;20.38;13.18;;;;;;;;;;5011254;28;20493;-69
2024/01/24 11:48:19;;;;;;;20.92;12.57;;;;;;;;;;5011806;28;20069;-69
2024/01/24 11:50:46;;;;;;;19.25;12.77;;;;;;;;;;5011550;28;20076;-69
2024/01/24 11:53:12;;;;;;;23.48;12.40;;;;;;;;;;5012232;28;20024;-68
2024/01/24 11:55:38;;;;;;;21.10;12.68;;;;;;;;;;5029458;28;20096;-68
2024/01/24 11:58:05;;;;;;;20.48;13.18;;;;;;;;;;5031424;28;20100;-68
2024/01/24 12:00:31;;;;;;;17.83;11.48;;;;;;;;;;5030917;28;20101;-68
2024/01/24 12:02:57;;;;;;;18.67;11.52;;;;;;;;;;5031503;28;20034;-68
2024/01/24 12:05:23;;;;;;;21.95;12.30;;;;;;;;;;5031715;28;20036;-69
2024/01/24 12:07:49;;;;;;;19.17;11.98;;;;;;;;;;5031835;28;20087;-70
2024/01/24 12:10:15;;;;;;;17.70;11.70;;;;;;;;;;5030672;28;20071;-67
2024/01/24 12:12:42;;;;;;;17.95;10.77;;;;;;;;;;5030609;28;20096;-70
2024/01/24 12:15:09;;;;;;;15.02;10.70;;;;;;;;;;5031755;28;20025;-70
2024/01/24 12:17:38;;;;;;;14.23;9.90;;;;;;;;;;5030889;28;20025;-69
2024/01/24 12:20:05;;;;;;;16.15;10.13;;;;;;;;;;5030327;28;20041;-71
2024/01/24 12:22:31;;;;;;;19.58;11.18;;;;;;;;;;5029029;28;20143;-70
2024/01/24 12:25:00;;;;;;;22.05;11.55;;;;;;;;;;5029875;28;20021;-70
2024/01/24 12:27:26;;;;;;;17.20;10.20;;;;;;;;;;5031080;28;20064;-70
2024/01/24 12:29:53;;;;;;;19.92;10.02;;;;;;;;;;5030178;28;20382;-67
2024/01/24 12:32:21;;;;;;;14.80;9.88;;;;;;;;;;5030999;28;20032;-70
2024/01/24 12:34:47;;;;;;;14.63;9.25;;;;;;;;;;5030930;28;20032;-70
2024/01/24 12:37:14;;;;;;;14.80;9.43;;;;;;;;;;5030888;28;20036;-70
2024/01/24 12:39:43;;;;;;;17.92;10.52;;;;;;;;;;5030547;28;20021;-69
2024/01/24 12:42:09;;;;;;;15.73;10.10;;;;;;;;;;5030730;28;20018;-70
2024/01/24 12:44:35;;;;;;;13.75;8.70;;;;;;;;;;5031460;28;20022;-69
2024/01/24 12:47:01;;;;;;;15.48;9.07;;;;;;;;;;5031380;28;20027;-69
2024/01/24 12:49:27;;;;;;;13.40;9.88;;;;;;;;;;5029814;28;20116;-70
2024/01/24 12:51:54;;;;;;;14.30;8.75;;;;;;;;;;5029141;28;20025;-70
2024/01/24 12:54:21;;;;;;;15.48;9.48;;;;;;;;;;5030356;28;20400;-70
2024/01/24 12:56:48;;;;;;;14.35;9.00;;;;;;;;;;5031222;28;20024;-69
2024/01/24 12:59:14;;;;;;;15.07;8.48;;;;;;;;;;5031057;28;20053;-69
2024/01/24 13:01:41;;;;;;;13.27;8.30;;;;;;;;;;5030253;28;20097;-70
2024/01/24 13:04:07;;;;;;;12.40;8.38;;;;;;;;;;5030867;28;20489;-69
2024/01/24 13:06:36;;;;;;;14.63;8.50;;;;;;;;;;5031132;28;20058;-70
2024/01/24 13:09:03;;;;;;;13.57;8.50;;;;;;;;;;5029737;28;20405;-69
2024/01/24 13:11:29;;;;;;;15.85;8.50;;;;;;;;;;5030253;28;20025;-70
2024/01/24 13:13:55;;;;;;;13.35;8.70;;;;;;;;;;5030989;28;20144;-69
2024/01/24 13:16:21;;;;;;;13.70;7.78;;;;;;;;;;5030964;28;20112;-69
2024/01/24 13:18:47;;;;;;;12.77;7.55;;;;;;;;;;5030805;28;20096;-68
2024/01/24 13:21:13;;;;;;;11.23;7.72;;;;;;;;;;5029773;28;20453;-70
2024/01/24 13:23:40;;;;;;;13.10;8.05;;;;;;;;;;5030048;28;20097;-70
2024/01/24 13:26:06;;;;;;;12.00;7.93;;;;;;;;;;5030430;28;20033;-69
2024/01/24 13:28:32;;;;;;;14.75;7.95;;;;;;;;;;5030512;28;20060;-70
2024/01/24 13:30:58;;;;;;;9.55;6.63;;;;;;;;;;5028414;28;20477;-68
2024/01/24 13:33:24;;;;;;;11.23;7.35;;;;;;;;;;5030174;28;20477;-70
2024/01/24 13:35:50;;;;;;;13.60;8.27;;;;;;;;;;5029073;28;20079;-69
2024/01/24 13:38:16;;;;;;;11.05;7.15;;;;;;;;;;5030747;28;20034;-69
2024/01/24 13:40:42;;;;;;;11.68;7.05;;;;;;;;;;5029997;28;20485;-67
2024/01/24 13:43:08;;;;;;;11.18;6.82;;;;;;;;;;5030604;28;20041;-69
2024/01/24 13:45:34;;;;;;;13.57;6.65;;;;;;;;;;5030619;28;20121;-69
2024/01/24 13:48:02;;;;;;;16.65;7.10;;;;;;;;;;5030506;28;20036;-70
2024/01/24 13:50:28;;;;;;;16.50;6.07;;;;;;;;;;5029821;28;20068;-69
2024/01/24 13:52:54;;;;;;;30.52;5.40;;;;;;;;;;5030379;28;20029;-71
2024/01/24 13:55:20;;;;;;;13.23;5.28;;;;;;;;;;5030950;28;20405;-69
2024/01/24 13:57:46;;;;;;;7.47;4.78;;;;;;;;;;5030644;28;20032;-69
2024/01/24 14:00:13;;;;;;;12.00;4.93;;;;;;;;;;5028563;28;20028;-70
2024/01/24 14:02:39;;;;;;;10.02;5.00;;;;;;;;;;5029910;28;20074;-70
2024/01/24 14:05:05;;;;;;;9.45;4.60;;;;;;;;;;5030752;28;20022;-70
2024/01/24 14:07:32;;;;;;;12.13;5.63;;;;;;;;;;5034178;28;20021;-70
2024/01/24 14:09:58;;;;;;;17.90;5.10;;;;;;;;;;5033302;28;20021;-70
2024/01/24 14:12:24;;;;;;;14.05;4.88;;;;;;;;;;5033843;28;20021;-70
2024/01/24 14:14:50;;;;;;;13.32;4.65;;;;;;;;;;5033943;28;20021;-69
2024/01/24 14:17:16;;;;;;;10.18;4.63;;;;;;;;;;5033251;28;20025;-70